createdAt,value
2022-11-08T00:02:21.785Z,6.40
2022-11-08T00:04:48.770Z,7.40
2022-11-08T00:07:34.215Z,5.60
2022-11-08T00:10:19.378Z,7.70
2022-11-08T00:13:04.438Z,7.50
2022-11-08T00:15:34.664Z,5.60
2022-11-08T00:18:01.315Z,5.50
2022-11-08T00:20:28.131Z,7.40
2022-11-08T00:22:54.758Z,8.00
2022-11-08T00:25:21.516Z,5.60
2022-11-08T00:27:48.136Z,6.80
2022-11-08T00:30:14.770Z,7.90
2022-11-08T00:32:41.392Z,6.70
2022-11-08T00:35:08.343Z,6.90
2022-11-08T00:37:34.961Z,5.60
2022-11-08T00:40:01.546Z,7.40
2022-11-08T00:42:28.157Z,7.30
2022-11-08T00:44:54.763Z,5.60
2022-11-08T00:47:21.357Z,5.60
2022-11-08T00:49:47.984Z,7.00
2022-11-08T00:52:14.621Z,5.60
2022-11-08T00:54:41.193Z,6.90
2022-11-08T00:57:07.819Z,7.50
2022-11-08T00:59:34.526Z,6.60
2022-11-08T01:02:01.396Z,6.40
2022-11-08T01:04:28.175Z,5.70
2022-11-08T01:06:54.818Z,6.20
2022-11-08T01:09:21.443Z,5.70
2022-11-08T01:11:48.093Z,7.40
2022-11-08T01:14:15.093Z,7.90
2022-11-08T01:16:42.139Z,5.80
2022-11-08T01:19:09.205Z,5.80
2022-11-08T01:21:36.575Z,7.40
2022-11-08T01:24:03.238Z,5.80
2022-11-08T01:26:29.966Z,5.70
2022-11-08T01:28:57.385Z,5.70
2022-11-08T01:31:25.531Z,6.70
2022-11-08T01:33:52.219Z,6.90
2022-11-08T01:36:20.801Z,6.90
2022-11-08T01:38:47.787Z,5.50
2022-11-08T01:41:15.434Z,5.50
2022-11-08T01:43:49.593Z,6.20
2022-11-08T01:46:19.278Z,5.40
2022-11-08T01:48:52.361Z,5.30
2022-11-08T01:51:20.940Z,5.20
2022-11-08T01:53:47.737Z,5.20
2022-11-08T01:56:15.069Z,6.70
2022-11-08T01:58:44.281Z,5.30
2022-11-08T02:01:12.334Z,5.10
2022-11-08T02:03:39.404Z,5.50
2022-11-08T02:06:06.715Z,5.20
2022-11-08T02:08:40.908Z,4.40
2022-11-08T02:11:08.594Z,5.20
2022-11-08T02:13:36.263Z,7.00
2022-11-08T02:16:03.288Z,5.20
2022-11-08T02:18:31.737Z,5.20
2022-11-08T02:21:01.532Z,6.10
2022-11-08T02:23:47.110Z,5.10
2022-11-08T02:26:14.948Z,5.20
2022-11-08T02:28:42.949Z,5.20
2022-11-08T02:31:10.849Z,6.30
2022-11-08T02:33:37.521Z,5.20
2022-11-08T02:36:04.989Z,7.20
2022-11-08T02:38:31.631Z,5.10
2022-11-08T02:40:58.295Z,6.50
2022-11-08T02:43:25.336Z,6.80
2022-11-08T02:45:52.759Z,6.00
2022-11-08T02:48:19.884Z,5.10
2022-11-08T02:50:47.247Z,6.30
2022-11-08T02:53:13.922Z,5.20
2022-11-08T02:55:40.619Z,5.70
2022-11-08T02:58:07.556Z,7.10
2022-11-08T03:00:34.765Z,6.20
2022-11-08T03:03:01.451Z,6.20
2022-11-08T03:05:28.989Z,5.10
2022-11-08T03:07:58.042Z,5.10
2022-11-08T03:10:26.020Z,6.50
2022-11-08T03:12:56.490Z,6.90
2022-11-08T03:15:23.338Z,4.90
2022-11-08T03:17:50.071Z,4.90
2022-11-08T03:20:17.049Z,4.80
2022-11-08T03:22:44.112Z,7.00
2022-11-08T03:25:10.722Z,5.80
2022-11-08T03:27:37.378Z,5.80
2022-11-08T03:30:04.902Z,5.30
2022-11-08T03:32:31.592Z,4.50
2022-11-08T03:34:59.680Z,5.50
2022-11-08T03:37:26.427Z,6.10
2022-11-08T03:39:53.033Z,5.70
2022-11-08T03:42:19.676Z,5.80
2022-11-08T03:44:46.576Z,5.40
2022-11-08T03:47:13.222Z,4.10
2022-11-08T03:49:39.893Z,4.20
2022-11-08T03:52:06.616Z,4.80
2022-11-08T03:54:33.234Z,6.20
2022-11-08T03:56:59.985Z,5.50
2022-11-08T03:59:26.591Z,4.20
2022-11-08T04:01:53.327Z,5.10
2022-11-08T04:04:20.076Z,5.30
2022-11-08T04:06:46.774Z,3.80
2022-11-08T04:09:16.502Z,5.10
2022-11-08T04:12:04.436Z,3.80
2022-11-08T04:14:49.873Z,5.00
2022-11-08T04:17:16.470Z,4.80
2022-11-08T04:20:01.930Z,3.70
2022-11-08T04:22:28.532Z,5.30
2022-11-08T04:24:55.150Z,5.80
2022-11-08T04:27:21.730Z,4.90
2022-11-08T04:29:50.651Z,3.80
2022-11-08T04:32:17.282Z,4.30
2022-11-08T04:34:43.864Z,5.50
2022-11-08T04:37:10.455Z,3.40
2022-11-08T04:39:37.071Z,3.30
2022-11-08T04:42:03.744Z,5.10
2022-11-08T04:44:30.437Z,3.20
2022-11-08T04:47:00.123Z,5.40
2022-11-08T04:49:26.697Z,3.30
2022-11-08T04:51:53.394Z,4.90
2022-11-08T04:54:20.035Z,3.20
2022-11-08T04:56:46.674Z,3.20
2022-11-08T04:59:13.428Z,4.80
2022-11-08T05:01:40.237Z,3.90
2022-11-08T05:04:06.966Z,4.80
2022-11-08T05:06:33.593Z,4.80
2022-11-08T05:09:00.428Z,3.50
2022-11-08T05:11:28.001Z,3.60
2022-11-08T05:13:55.029Z,3.60
2022-11-08T05:16:23.114Z,3.60
2022-11-08T05:18:50.117Z,3.50
2022-11-08T05:21:36.424Z,3.50
2022-11-08T05:24:04.111Z,5.20
2022-11-08T05:26:33.183Z,3.40
2022-11-08T05:28:59.996Z,5.20
2022-11-08T05:31:26.585Z,3.50
2022-11-08T05:33:53.361Z,4.40
2022-11-08T05:36:19.981Z,3.40
2022-11-08T05:38:46.719Z,4.60
2022-11-08T05:41:21.690Z,3.40
2022-11-08T05:43:49.565Z,3.30
2022-11-08T05:46:16.744Z,5.40
2022-11-08T05:48:43.796Z,3.10
2022-11-08T05:51:12.089Z,2.70
2022-11-08T05:53:41.202Z,2.90
2022-11-08T05:56:08.458Z,4.60
2022-11-08T05:58:35.701Z,4.20
2022-11-08T06:01:03.177Z,2.80
2022-11-08T06:03:30.308Z,4.40
2022-11-08T06:06:01.346Z,3.00
2022-11-08T06:08:27.918Z,4.50
2022-11-08T06:10:54.517Z,4.60
2022-11-08T06:13:21.269Z,3.10
2022-11-08T06:15:47.845Z,4.70
2022-11-08T06:18:14.588Z,3.20
2022-11-08T06:20:41.326Z,5.00
2022-11-08T06:23:07.969Z,3.20
2022-11-08T06:25:34.683Z,3.20
2022-11-08T06:28:01.328Z,3.10
2022-11-08T06:30:27.950Z,3.10
2022-11-08T06:32:59.181Z,4.20
2022-11-08T06:35:25.902Z,5.60
2022-11-08T06:37:56.463Z,2.90
2022-11-08T06:40:26.856Z,4.60
2022-11-08T06:42:53.573Z,4.20
2022-11-08T06:45:20.542Z,3.10
2022-11-08T06:47:47.190Z,4.60
2022-11-08T06:50:13.834Z,3.20
2022-11-08T06:52:41.264Z,5.00
2022-11-08T06:55:08.150Z,4.80
2022-11-08T06:57:35.389Z,3.30
2022-11-08T07:00:02.119Z,4.70
2022-11-08T07:02:29.052Z,3.50
2022-11-08T07:04:55.855Z,6.40
2022-11-08T07:07:22.659Z,5.90
2022-11-08T07:09:52.193Z,5.60
2022-11-08T07:12:18.902Z,2.60
2022-11-08T07:14:45.550Z,5.70
2022-11-08T07:17:12.202Z,6.10
2022-11-08T07:19:38.918Z,4.20
2022-11-08T07:22:05.818Z,4.20
2022-11-08T07:24:32.485Z,6.50
2022-11-08T07:27:02.215Z,2.60
2022-11-08T07:29:28.888Z,5.30
2022-11-08T07:31:58.916Z,4.20
2022-11-08T07:34:25.771Z,4.30
2022-11-08T07:36:52.406Z,5.80
2022-11-08T07:39:19.181Z,4.50
2022-11-08T07:41:45.824Z,6.20
2022-11-08T07:44:12.471Z,6.00
2022-11-08T07:46:39.103Z,6.30
2022-11-08T07:49:05.948Z,6.60
2022-11-08T07:51:32.681Z,6.20
2022-11-08T07:54:03.006Z,6.10
2022-11-08T07:56:30.366Z,6.20
2022-11-08T07:58:57.022Z,5.40
2022-11-08T08:01:23.832Z,7.80
2022-11-08T08:03:50.718Z,7.20
2022-11-08T08:06:17.488Z,7.80
2022-11-08T08:08:44.236Z,7.70
2022-11-08T08:11:11.105Z,7.70
2022-11-08T08:13:37.783Z,7.90
2022-11-08T08:16:04.649Z,7.90
2022-11-08T08:18:31.252Z,6.90
2022-11-08T08:20:58.461Z,7.20
2022-11-08T08:23:25.182Z,9.60
2022-11-08T08:25:52.861Z,9.00
2022-11-08T08:28:19.489Z,9.20
2022-11-08T08:30:46.242Z,8.40
2022-11-08T08:33:27.817Z,8.70
2022-11-08T08:35:56.322Z,8.10
2022-11-08T08:38:23.076Z,8.50
2022-11-08T08:40:50.344Z,8.40
2022-11-08T08:43:17.402Z,8.50
2022-11-08T08:45:44.237Z,8.60
2022-11-08T08:48:10.851Z,9.30
2022-11-08T08:50:37.477Z,9.50
2022-11-08T08:53:05.318Z,10.20
2022-11-08T08:55:32.615Z,10.10
2022-11-08T08:57:59.333Z,8.80
2022-11-08T09:03:12.843Z,9.70
2022-11-08T09:05:44.173Z,9.00
2022-11-08T09:08:11.376Z,9.10
2022-11-08T09:10:38.224Z,10.20
2022-11-08T09:13:04.926Z,9.30
2022-11-08T09:15:31.540Z,9.60
2022-11-08T09:17:58.656Z,10.40
2022-11-08T09:20:25.581Z,9.40
2022-11-08T09:22:52.235Z,9.40
2022-11-08T09:25:19.132Z,9.50
2022-11-08T09:27:45.773Z,11.00
2022-11-08T09:30:12.439Z,9.60
2022-11-08T09:32:59.709Z,9.40
2022-11-08T09:35:26.183Z,9.40
2022-11-08T09:37:53.224Z,11.00
2022-11-08T09:40:40.127Z,9.70
2022-11-08T09:43:21.592Z,9.70
2022-11-08T09:45:49.952Z,9.80
2022-11-08T09:48:19.520Z,9.90
2022-11-08T09:50:46.632Z,10.00
2022-11-08T09:53:13.184Z,10.10
2022-11-08T09:56:06.187Z,11.70
2022-11-08T09:59:01.748Z,10.30
2022-11-08T10:01:32.901Z,10.40
2022-11-08T10:04:07.976Z,10.50
2022-11-08T10:06:50.155Z,10.50
2022-11-08T10:09:16.803Z,10.60
2022-11-08T10:11:49.950Z,10.60
2022-11-08T10:14:26.618Z,10.60
2022-11-08T10:16:56.181Z,10.60
2022-11-08T10:19:39.320Z,10.60
2022-11-08T10:22:11.690Z,10.60
2022-11-08T10:24:47.432Z,11.80
2022-11-08T10:27:16.330Z,10.60
2022-11-08T10:29:46.406Z,12.30
2022-11-08T10:32:21.410Z,10.60
2022-11-08T10:34:56.170Z,10.70
2022-11-08T10:37:24.137Z,10.70
2022-11-08T10:40:00.328Z,11.00
2022-11-08T10:42:50.310Z,11.00
2022-11-08T10:45:16.936Z,11.30
2022-11-08T10:47:44.993Z,11.50
2022-11-08T10:50:14.151Z,12.80
2022-11-08T10:52:53.491Z,13.10
2022-11-08T10:55:25.948Z,11.80
2022-11-08T10:57:52.970Z,11.90
2022-11-08T11:00:29.877Z,12.10
2022-11-08T11:02:56.517Z,12.70
2022-11-08T11:05:25.878Z,12.90
2022-11-08T11:08:02.147Z,13.30
2022-11-08T11:10:31.973Z,12.60
2022-11-08T11:13:01.732Z,12.70
2022-11-08T11:15:40.678Z,12.80
2022-11-08T11:18:18.452Z,12.90
2022-11-08T11:20:59.241Z,13.00
2022-11-08T11:23:32.417Z,12.90
2022-11-08T11:25:59.033Z,14.10
2022-11-08T11:28:25.644Z,13.40
2022-11-08T11:30:59.949Z,14.40
2022-11-08T11:33:27.603Z,13.40
2022-11-08T11:35:56.178Z,13.80
2022-11-08T11:38:41.586Z,15.20
2022-11-08T11:41:14.873Z,13.70
2022-11-08T11:43:48.088Z,13.70
2022-11-08T11:46:18.016Z,13.80
2022-11-08T11:48:50.799Z,15.00
2022-11-08T11:51:17.442Z,14.10
2022-11-08T11:53:48.659Z,15.10
2022-11-08T11:56:25.433Z,15.80
2022-11-08T11:58:52.166Z,14.50
2022-11-08T12:01:28.122Z,15.30
2022-11-08T12:04:13.585Z,14.60
2022-11-08T12:07:04.714Z,14.70
2022-11-08T12:09:41.065Z,14.70
2022-11-08T12:12:10.789Z,14.70
2022-11-08T12:14:46.685Z,14.80
2022-11-08T12:17:33.590Z,14.90
2022-11-08T12:20:21.622Z,15.70
2022-11-08T12:23:15.848Z,15.20
2022-11-08T12:25:47.394Z,15.20
2022-11-08T12:28:20.400Z,15.30
2022-11-08T12:30:58.338Z,15.40
2022-11-08T12:33:34.616Z,15.80
2022-11-08T12:36:07.414Z,15.30
2022-11-08T12:38:50.773Z,15.30
2022-11-08T12:41:23.370Z,15.20
2022-11-08T12:43:59.395Z,16.60
2022-11-08T12:46:28.887Z,15.10
2022-11-08T12:49:14.314Z,16.00
2022-11-08T12:51:48.523Z,15.00
2022-11-08T12:54:18.235Z,15.00
2022-11-08T12:56:45.948Z,14.90
2022-11-08T12:59:39.048Z,16.40
2022-11-08T13:02:09.215Z,14.80
2022-11-08T13:04:38.588Z,14.80
2022-11-08T13:07:05.269Z,14.80
2022-11-08T13:09:31.827Z,14.80
2022-11-08T13:12:18.672Z,14.70
2022-11-08T13:14:45.428Z,14.90
2022-11-08T13:17:17.461Z,14.60
2022-11-08T13:19:47.080Z,14.60
2022-11-08T13:22:29.134Z,14.60
2022-11-08T13:24:56.926Z,14.40
2022-11-08T13:27:25.159Z,14.40
2022-11-08T13:29:52.845Z,15.40
2022-11-08T13:32:54.252Z,14.30
2022-11-08T13:35:25.840Z,14.30
2022-11-08T13:38:11.119Z,14.30
2022-11-08T13:40:40.791Z,14.30
2022-11-08T13:43:16.491Z,14.30
2022-11-08T13:45:44.131Z,14.30
2022-11-08T13:48:30.002Z,15.60
2022-11-08T13:50:57.475Z,14.20
2022-11-08T13:54:02.799Z,14.40
2022-11-08T13:56:46.211Z,14.10
2022-11-08T13:59:50.894Z,14.10
2022-11-08T14:02:23.578Z,14.00
2022-11-08T14:04:50.201Z,14.00
2022-11-08T14:07:29.854Z,13.90
2022-11-08T14:10:03.270Z,14.00
2022-11-08T14:12:32.694Z,14.50
2022-11-08T14:15:07.181Z,13.90
2022-11-08T14:17:36.910Z,13.90
2022-11-08T14:20:27.036Z,15.20
2022-11-08T14:22:53.809Z,13.90
2022-11-08T14:25:29.722Z,13.90
2022-11-08T14:27:56.375Z,13.90
2022-11-08T14:30:24.284Z,13.90
2022-11-08T14:33:09.752Z,13.90
2022-11-08T14:35:36.445Z,13.90
2022-11-08T14:38:03.077Z,13.90
2022-11-08T14:40:29.843Z,14.00
2022-11-08T14:42:56.830Z,13.80
2022-11-08T14:45:26.854Z,14.00
2022-11-08T14:47:58.937Z,15.00
2022-11-08T14:50:29.220Z,14.60
2022-11-08T14:52:56.567Z,13.80
2022-11-08T14:55:25.056Z,15.00
2022-11-08T14:57:52.082Z,13.90
2022-11-08T15:00:20.542Z,13.60
2022-11-08T15:02:52.005Z,13.50
2022-11-08T15:05:40.662Z,13.50
2022-11-08T15:08:15.527Z,13.40
2022-11-08T15:10:56.428Z,13.30
2022-11-08T15:13:24.298Z,13.20
2022-11-08T15:15:54.317Z,14.20
2022-11-08T15:18:26.366Z,14.30
2022-11-08T15:21:11.395Z,13.10
2022-11-08T15:23:42.285Z,13.00
2022-11-08T15:26:26.090Z,12.90
2022-11-08T15:29:19.824Z,12.80
2022-11-08T15:31:49.676Z,12.70
2022-11-08T15:34:28.578Z,13.40
2022-11-08T15:36:55.340Z,12.60
2022-11-08T15:39:28.406Z,13.10
2022-11-08T15:41:59.560Z,12.40
2022-11-08T15:44:26.731Z,13.00
2022-11-08T15:46:54.362Z,13.40
2022-11-08T15:49:21.126Z,12.00
2022-11-08T15:51:52.231Z,12.80
2022-11-08T15:54:19.232Z,11.80
2022-11-08T15:56:46.305Z,11.80
2022-11-08T15:59:21.126Z,11.60
2022-11-08T16:02:08.494Z,11.50
2022-11-08T16:04:35.243Z,12.80
2022-11-08T16:07:01.914Z,11.30
2022-11-08T16:09:28.650Z,11.50
2022-11-08T16:11:55.360Z,12.20
2022-11-08T16:14:23.520Z,11.40
2022-11-08T16:16:50.506Z,12.10
2022-11-08T16:19:18.849Z,12.30
2022-11-08T16:21:45.485Z,12.30
2022-11-08T16:24:12.248Z,11.60
2022-11-08T16:26:40.043Z,12.10
2022-11-08T16:29:07.579Z,11.60
2022-11-08T16:31:34.939Z,11.20
2022-11-08T16:34:01.584Z,11.90
2022-11-08T16:36:28.205Z,10.40
2022-11-08T16:38:59.147Z,10.50
2022-11-08T16:41:26.141Z,10.30
2022-11-08T16:43:52.948Z,10.30
2022-11-08T16:46:20.591Z,11.10
2022-11-08T16:48:55.783Z,11.30
2022-11-08T16:51:23.423Z,10.30
2022-11-08T16:53:50.085Z,12.20
2022-11-08T16:56:16.750Z,10.80
2022-11-08T16:58:43.504Z,11.20
2022-11-08T17:01:21.346Z,11.00
2022-11-08T17:03:48.005Z,10.30
2022-11-08T17:06:16.714Z,10.40
2022-11-08T17:08:46.471Z,10.30
2022-11-08T17:11:17.495Z,11.50
2022-11-08T17:13:44.117Z,11.00
2022-11-08T17:16:11.763Z,11.20
2022-11-08T17:18:38.998Z,10.60
2022-11-08T17:21:30.001Z,10.50
2022-11-08T17:23:53.120Z,10.60
2022-11-08T17:26:19.756Z,11.10
2022-11-08T17:28:46.436Z,12.30
2022-11-08T17:31:14.733Z,11.00
2022-11-08T17:33:41.906Z,11.10
2022-11-08T17:36:09.489Z,11.00
2022-11-08T17:38:36.448Z,10.70
2022-11-08T17:41:07.114Z,10.70
2022-11-08T17:43:34.836Z,10.70
2022-11-08T17:46:03.322Z,11.80
2022-11-08T17:48:30.857Z,10.70
2022-11-08T17:50:57.813Z,10.80
2022-11-08T17:53:24.593Z,12.20
2022-11-08T17:55:59.202Z,10.50
2022-11-08T17:58:26.135Z,10.40
2022-11-08T18:00:54.043Z,11.80
2022-11-08T18:03:21.459Z,10.50
2022-11-08T18:06:05.469Z,11.20
2022-11-08T18:08:33.350Z,10.10
2022-11-08T18:11:00.102Z,11.10
2022-11-08T18:13:27.106Z,10.90
2022-11-08T18:15:53.801Z,11.10
2022-11-08T18:18:20.608Z,9.70
2022-11-08T18:20:54.436Z,10.30
2022-11-08T18:23:21.481Z,9.60
2022-11-08T18:25:49.198Z,9.50
2022-11-08T18:28:16.186Z,10.80
2022-11-08T18:30:45.287Z,11.10
2022-11-08T18:33:14.545Z,10.80
2022-11-08T18:35:41.156Z,9.50
2022-11-08T18:38:07.721Z,10.00
2022-11-08T18:40:34.453Z,9.50
2022-11-08T18:43:01.055Z,10.70
2022-11-08T18:45:27.722Z,9.50
2022-11-08T18:47:54.697Z,9.40
2022-11-08T18:50:21.256Z,9.40
2022-11-08T18:52:48.241Z,10.30
2022-11-08T18:55:15.794Z,10.10
2022-11-08T18:57:42.441Z,9.40
2022-11-08T19:00:12.310Z,9.30
2022-11-08T19:02:41.896Z,9.20
2022-11-08T19:05:08.568Z,9.20
2022-11-08T19:07:35.134Z,9.30
2022-11-08T19:10:01.814Z,9.30
2022-11-08T19:12:29.869Z,9.40
2022-11-08T19:14:56.550Z,10.50
2022-11-08T19:17:23.176Z,10.50
2022-11-08T19:19:49.859Z,9.70
2022-11-08T19:22:16.600Z,9.80
2022-11-08T19:24:43.271Z,10.30
2022-11-08T19:27:09.904Z,10.10
2022-11-08T19:29:36.553Z,10.20
2022-11-08T19:32:03.360Z,10.40
2022-11-08T19:34:31.005Z,10.40
2022-11-08T19:36:57.629Z,10.40
2022-11-08T19:39:24.693Z,11.00
2022-11-08T19:41:51.337Z,10.80
2022-11-08T19:44:18.126Z,11.40
2022-11-08T19:46:44.851Z,10.40
2022-11-08T19:49:11.484Z,10.40
2022-11-08T19:51:38.158Z,10.30
2022-11-08T19:54:10.254Z,10.70
2022-11-08T19:57:04.049Z,10.20
2022-11-08T19:59:23.726Z,11.40
2022-11-08T20:01:50.451Z,10.00
2022-11-08T20:04:18.595Z,10.10
2022-11-08T20:06:46.213Z,10.60
2022-11-08T20:09:12.901Z,10.70
2022-11-08T20:11:40.659Z,9.70
2022-11-08T20:14:07.848Z,11.10
2022-11-08T20:16:38.026Z,10.60
2022-11-08T20:19:06.544Z,9.80
2022-11-08T20:21:34.125Z,9.80
2022-11-08T20:24:00.999Z,9.80
2022-11-08T20:26:29.142Z,10.60
2022-11-08T20:28:56.893Z,9.80
2022-11-08T20:31:25.390Z,10.60
2022-11-08T20:33:53.172Z,9.80
2022-11-08T20:36:20.768Z,9.90
2022-11-08T20:38:47.395Z,9.80
2022-11-08T20:41:15.269Z,11.10
2022-11-08T20:43:45.195Z,9.70
2022-11-08T20:46:13.380Z,9.70
2022-11-08T20:48:42.923Z,10.40
2022-11-08T20:51:11.780Z,9.70
2022-11-08T20:53:38.357Z,10.00
2022-11-08T20:56:11.800Z,10.80
2022-11-08T20:58:38.671Z,9.40
2022-11-08T21:01:06.157Z,10.20
2022-11-08T21:03:32.997Z,10.80
2022-11-08T21:06:00.804Z,9.20
2022-11-08T21:11:14.661Z,9.10
2022-11-08T21:13:42.895Z,9.50
2022-11-08T21:16:28.772Z,9.10
2022-11-08T21:18:57.035Z,10.20
2022-11-08T21:21:23.790Z,8.90
2022-11-08T21:23:51.089Z,8.70
2022-11-08T21:26:19.208Z,9.70
2022-11-08T21:28:46.225Z,10.00
2022-11-08T21:31:12.868Z,8.60
2022-11-08T21:33:39.404Z,8.40
2022-11-08T21:36:06.528Z,8.30
2022-11-08T21:38:35.408Z,8.20
2022-11-08T21:41:05.404Z,8.20
2022-11-08T21:43:36.347Z,8.20
2022-11-08T21:46:11.726Z,8.30
2022-11-08T21:48:38.263Z,8.40
2022-11-08T21:51:04.875Z,8.40
2022-11-08T21:53:31.519Z,8.50
2022-11-08T21:55:58.669Z,9.60
2022-11-08T21:58:25.223Z,8.50
2022-11-08T22:00:51.968Z,8.40
2022-11-08T22:03:18.689Z,8.30
2022-11-08T22:05:45.503Z,8.20
2022-11-08T22:08:12.131Z,8.20
2022-11-08T22:10:39.541Z,8.30
2022-11-08T22:13:06.172Z,8.40
2022-11-08T22:15:32.733Z,10.40
2022-11-08T22:18:17.450Z,10.10
2022-11-08T22:21:06.621Z,9.10
2022-11-08T22:23:33.871Z,8.50
2022-11-08T22:26:00.681Z,10.20
2022-11-08T22:28:27.302Z,8.70
2022-11-08T22:30:53.929Z,8.70
2022-11-08T22:33:21.328Z,8.70
2022-11-08T22:35:47.952Z,8.70
2022-11-08T22:38:16.085Z,8.70
2022-11-08T22:40:44.022Z,8.70
2022-11-08T22:43:10.649Z,8.60
2022-11-08T22:45:41.347Z,9.70
2022-11-08T22:48:08.926Z,8.40
2022-11-08T22:50:35.869Z,8.50
2022-11-08T22:53:02.421Z,8.50
2022-11-08T22:55:29.030Z,8.50
2022-11-08T22:57:55.703Z,8.60
2022-11-08T23:00:22.413Z,8.60
2022-11-08T23:02:48.983Z,8.70
2022-11-08T23:05:15.661Z,8.80
2022-11-08T23:07:42.285Z,8.90
2022-11-08T23:10:09.125Z,9.00
2022-11-08T23:12:54.304Z,9.10
2022-11-08T23:15:53.092Z,9.20
2022-11-08T23:18:20.319Z,9.20
2022-11-08T23:21:05.904Z,9.30
2022-11-08T23:23:51.149Z,10.40
2022-11-08T23:26:43.782Z,9.40
2022-11-08T23:29:29.471Z,9.40
2022-11-08T23:31:56.378Z,9.50
2022-11-08T23:34:23.129Z,9.40
2022-11-08T23:36:49.736Z,9.40
2022-11-08T23:39:16.316Z,9.50
2022-11-08T23:42:01.800Z,9.50
2022-11-08T23:44:28.522Z,9.50
2022-11-08T23:46:55.088Z,9.50
2022-11-08T23:49:21.818Z,10.30
2022-11-08T23:51:48.515Z,9.30
2022-11-08T23:54:15.130Z,10.70
2022-11-08T23:56:42.102Z,10.70
2022-11-08T23:59:08.840Z,9.40
